Time;durP1;ratioP1;P1;durP2;ratioP2;P2;SDS_P1;SDS_P2;PMS_P1;PMS_P2;Temp;Humidity;BMP_temperature;BMP_pressure;BME280_temperature;BME280_humidity;BME280_pressure;Samples;Min_cycle;Max_cycle;Signal;HPM_P1;HPM_P2
2021/03/10 00:00:26;;;;;;;56.85;29.77;;;;;;;-7.37;80.47;100088.66;1657271;85;21219;-67
2021/03/10 00:02:54;;;;;;;56.28;30.70;;;;;;;-7.37;80.53;100092.05;1688481;84;21055;-69
2021/03/10 00:05:21;;;;;;;55.50;24.75;;;;;;;-7.41;80.47;100085.19;1654514;85;21115;-69
2021/03/10 00:07:48;;;;;;;53.13;27.75;;;;;;;-7.45;80.50;100088.04;1689121;84;21593;-69
2021/03/10 00:10:16;;;;;;;47.05;24.55;;;;;;;-7.42;80.71;100082.20;1655246;85;21180;-69
2021/03/10 00:12:44;;;;;;;47.58;23.67;;;;;;;-7.36;80.77;100087.45;1687209;84;21248;-69
2021/03/10 00:15:13;;;;;;;55.70;27.45;;;;;;;-7.38;80.52;100079.34;1638508;85;21661;-69
2021/03/10 00:17:42;;;;;;;57.60;24.87;;;;;;;-7.46;80.40;100086.30;1654203;85;21871;-69
2021/03/10 00:20:13;;;;;;;48.98;25.45;;;;;;;-7.52;80.39;100085.26;1682569;84;21186;-69
2021/03/10 00:22:41;;;;;;;56.92;28.47;;;;;;;-7.54;80.53;100086.47;1690350;84;21216;-69
2021/03/10 00:25:31;;;;;;;57.00;27.22;;;;;;;-7.56;80.56;100088.11;1690265;84;21223;-69
2021/03/10 00:27:58;;;;;;;52.25;29.12;;;;;;;-7.57;80.55;100080.03;1686378;82;21156;-69
2021/03/10 00:30:25;;;;;;;60.75;31.02;;;;;;;-7.60;80.46;100083.74;1705651;82;21199;-69
2021/03/10 00:32:52;;;;;;;56.20;28.23;;;;;;;-7.62;80.53;100077.75;1712810;81;21525;-68
2021/03/10 00:35:19;;;;;;;48.33;25.25;;;;;;;-7.66;80.50;100075.95;1718300;82;21174;-68
2021/03/10 00:37:46;;;;;;;54.90;27.45;;;;;;;-7.71;80.47;100074.94;1736427;81;21897;-69
2021/03/10 00:40:13;;;;;;;54.80;27.55;;;;;;;-7.75;80.48;100078.20;1735666;80;21011;-69
2021/03/10 00:42:40;;;;;;;50.40;24.12;;;;;;;-7.79;80.56;100071.30;1735639;81;21061;-68
2021/03/10 00:45:09;;;;;;;51.68;27.70;;;;;;;-7.79;80.65;100066.23;1736300;80;21113;-69
2021/03/10 00:47:36;;;;;;;51.42;24.20;;;;;;;-7.74;80.80;100077.37;1738016;81;22390;-69
2021/03/10 00:50:05;;;;;;;47.62;23.62;;;;;;;-7.66;81.12;100078.48;1736790;81;22265;-69
2021/03/10 00:52:32;;;;;;;45.90;24.07;;;;;;;-7.54;81.21;100073.78;1737626;81;21042;-69
2021/03/10 00:54:59;;;;;;;45.85;23.27;;;;;;;-7.43;81.22;100067.36;1736663;81;21141;-68
2021/03/10 00:57:26;;;;;;;52.90;23.42;;;;;;;-7.34;81.15;100068.45;1711570;82;21681;-69
2021/03/10 00:59:53;;;;;;;52.62;24.10;;;;;;;-7.27;81.16;100061.50;1704721;82;27155;-69
2021/03/10 01:02:20;;;;;;;46.20;23.20;;;;;;;-7.18;81.15;100065.56;1683223;83;22418;-69
2021/03/10 01:04:47;;;;;;;45.43;23.35;;;;;;;-7.12;81.13;100069.55;1734332;80;21012;-69
2021/03/10 01:07:14;;;;;;;48.92;24.92;;;;;;;-7.08;81.08;100065.03;1734493;81;21126;-69
2021/03/10 01:09:40;;;;;;;50.98;25.68;;;;;;;-7.06;80.95;100067.18;1730724;81;21672;-68
2021/03/10 01:12:09;;;;;;;60.70;28.10;;;;;;;-7.10;80.65;100056.92;1712752;82;21140;-69
2021/03/10 01:14:36;;;;;;;58.50;27.87;;;;;;;-7.26;80.32;100061.94;1714620;82;22260;-69
2021/03/10 01:17:03;;;;;;;57.10;27.55;;;;;;;-7.43;80.26;100064.83;1735701;81;21612;-69
2021/03/10 01:19:30;;;;;;;56.18;28.15;;;;;;;-7.57;80.26;100060.16;1735051;81;21087;-69
2021/03/10 01:21:58;;;;;;;60.80;29.92;;;;;;;-7.69;80.32;100058.11;1737798;81;21216;-69
2021/03/10 01:24:25;;;;;;;66.12;29.80;;;;;;;-7.79;80.45;100062.42;1736797;81;21188;-69
2021/03/10 01:26:52;;;;;;;67.10;31.07;;;;;;;-7.84;80.62;100061.41;1738206;81;21610;-69
2021/03/10 01:29:20;;;;;;;59.90;30.17;;;;;;;-7.90;80.65;100059.16;1741668;80;21115;-68
2021/03/10 01:31:48;;;;;;;59.18;31.35;;;;;;;-7.92;80.85;100053.17;1739781;80;21036;-69
2021/03/10 01:34:15;;;;;;;;;;;;;;;-7.92;80.97;100056.97;1747061;80;21562;-69
2021/03/10 01:36:42;;;;;;;63.98;33.02;;;;;;;-7.95;80.89;100053.08;1743383;80;20269;-69
2021/03/10 01:39:09;;;;;;;60.28;32.35;;;;;;;-7.98;80.81;100058.05;1744665;80;22619;-69
2021/03/10 01:41:36;;;;;;;62.13;32.15;;;;;;;-7.98;81.01;100045.38;1743519;80;21623;-69
2021/03/10 01:44:04;;;;;;;60.48;28.70;;;;;;;-7.97;80.93;100051.30;1742093;80;21623;-68
2021/03/10 01:46:37;;;;;;;;;;;;;;;-8.00;80.99;100053.33;1747146;80;21212;-68
2021/03/10 01:49:13;;;;;;;54.15;24.80;;;;;;;-7.97;81.10;100048.36;1769485;78;23361;-67
2021/03/10 01:51:40;;;;;;;62.67;27.10;;;;;;;-8.04;81.07;100050.22;1726400;81;20978;-67
2021/03/10 01:54:07;;;;;;;66.57;30.30;;;;;;;-8.10;80.90;100051.30;1732448;81;21742;-67
2021/03/10 01:56:35;;;;;;;73.62;32.28;;;;;;;-8.17;80.81;100050.66;1745573;79;21183;-67
2021/03/10 01:59:03;;;;;;;66.72;30.43;;;;;;;-8.26;80.64;100049.06;1754827;79;21049;-67
2021/03/10 02:01:30;;;;;;;62.70;30.20;;;;;;;-8.34;80.72;100050.95;1753805;79;21036;-67
2021/03/10 02:03:57;;;;;;;53.33;27.32;;;;;;;-8.40;80.72;100053.31;1727993;80;21125;-67
2021/03/10 02:06:35;;;;;;;63.15;28.05;;;;;;;-8.44;80.84;100045.14;1742693;81;21226;-67
2021/03/10 02:09:06;;;;;;;57.80;28.75;;;;;;;-8.45;80.96;100042.16;1741146;81;21020;-69
2021/03/10 02:11:40;;;;;;;64.30;29.45;;;;;;;-8.43;81.06;100044.73;1738353;80;21045;-69
2021/03/10 02:14:48;;;;;;;57.08;28.92;;;;;;;-8.45;81.02;100035.83;1739688;81;21013;-69
2021/03/10 02:17:20;;;;;;;55.23;29.70;;;;;;;-8.45;81.05;100039.63;1734589;81;21203;-69
2021/03/10 02:20:25;;;;;;;58.55;30.72;;;;;;;-8.45;81.08;100032.03;1760796;79;21269;-69
2021/03/10 02:23:20;;;;;;;58.75;30.45;;;;;;;-8.47;81.10;100031.11;1737314;80;21228;-68
2021/03/10 02:26:21;;;;;;;64.62;30.35;;;;;;;-8.49;81.14;100035.25;1759094;79;21148;-69
2021/03/10 02:28:50;;;;;;;58.20;29.30;;;;;;;-8.47;81.14;100039.97;1655813;85;21215;-69
2021/03/10 02:31:17;;;;;;;71.62;33.45;;;;;;;-8.43;81.15;100042.19;1651431;85;21182;-69
2021/03/10 02:33:47;;;;;;;57.13;31.02;;;;;;;-8.45;81.13;100033.30;1653917;85;21765;-69
2021/03/10 02:36:15;;;;;;;59.40;30.00;;;;;;;-8.45;81.16;100036.23;1648791;85;22149;-69
2021/03/10 02:38:47;;;;;;;68.35;30.85;;;;;;;-8.47;81.11;100032.38;1646294;85;21739;-69
2021/03/10 02:41:16;;;;;;;62.43;30.23;;;;;;;-8.46;81.13;100034.09;1651159;85;21291;-69
2021/03/10 02:43:54;;;;;;;64.70;31.48;;;;;;;-8.45;81.02;100035.83;1748494;80;22500;-67
2021/03/10 02:46:22;;;;;;;61.65;30.90;;;;;;;-8.57;80.88;100039.19;1742801;81;21549;-69
2021/03/10 02:48:50;;;;;;;60.88;30.75;;;;;;;-8.66;80.81;100044.80;1735580;81;21669;-69
2021/03/10 02:51:39;;;;;;;63.40;31.25;;;;;;;-8.74;80.78;100047.88;1734341;81;21044;-69
2021/03/10 02:54:07;;;;;;;70.05;29.85;;;;;;;-8.82;80.78;100044.69;1742747;80;21178;-68
2021/03/10 02:56:35;;;;;;;64.00;31.70;;;;;;;-8.82;80.91;100040.00;1738883;80;21017;-68
2021/03/10 02:59:02;;;;;;;60.38;29.02;;;;;;;-8.81;80.80;100043.87;1738213;81;21573;-68
2021/03/10 03:01:29;;;;;;;;;;;;;;;-8.80;80.93;100044.72;1737901;81;21656;-68
2021/03/10 03:03:56;;;;;;;;;;;;;;;-8.82;80.88;100035.83;1739152;81;21328;-68
2021/03/10 03:06:23;;;;;;;58.75;28.32;;;;;;;-8.85;80.81;100043.31;1735761;81;20139;-69
2021/03/10 03:08:50;;;;;;;63.52;29.20;;;;;;;-8.93;80.71;100037.11;1737667;81;20989;-69
2021/03/10 03:11:18;;;;;;;61.58;29.27;;;;;;;-9.05;80.65;100031.59;1737472;81;21179;-68
2021/03/10 03:14:06;;;;;;;62.08;30.57;;;;;;;-9.11;80.75;100028.84;1737254;81;27012;-69
2021/03/10 03:16:34;;;;;;;54.60;28.92;;;;;;;-9.15;80.81;100032.09;1709643;82;20995;-68
2021/03/10 03:19:03;;;;;;;60.65;30.50;;;;;;;-9.22;80.77;100037.71;1692856;82;21144;-68
2021/03/10 03:21:30;;;;;;;62.03;31.95;;;;;;;-9.30;80.72;100037.05;1720643;82;21164;-68
2021/03/10 03:23:58;;;;;;;;;;;;;;;-9.34;80.81;100040.25;1701832;82;21063;-69
2021/03/10 03:26:26;;;;;;;65.70;31.40;;;;;;;-9.37;80.95;100038.88;1700699;82;21411;-68
2021/03/10 03:28:55;;;;;;;61.50;30.68;;;;;;;-9.36;81.04;100033.00;1698774;84;21622;-68
2021/03/10 03:31:23;;;;;;;57.03;28.98;;;;;;;-9.36;80.99;100036.78;1701366;83;21036;-68
2021/03/10 03:33:51;;;;;;;54.63;29.72;;;;;;;-9.39;81.08;100031.62;1698523;83;21136;-69
2021/03/10 03:36:19;;;;;;;62.95;31.12;;;;;;;-9.38;81.15;100033.73;1698052;84;21151;-69
2021/03/10 03:38:46;;;;;;;53.08;30.70;;;;;;;-9.37;81.18;100033.81;1700186;84;22829;-69
2021/03/10 03:41:13;;;;;;;52.35;28.52;;;;;;;-9.36;81.13;100040.58;1699911;83;21203;-69
2021/03/10 03:43:41;;;;;;;58.20;28.42;;;;;;;-9.38;81.07;100037.16;1702091;83;21676;-70
2021/03/10 03:46:08;;;;;;;52.75;28.57;;;;;;;-9.42;80.96;100030.24;1700337;82;21174;-69
2021/03/10 03:48:35;;;;;;;;;;;;;;;-9.45;80.99;100032.66;1700465;84;21057;-69
2021/03/10 03:51:02;;;;;;;51.88;27.02;;;;;;;-9.46;80.96;100041.06;1701770;84;21420;-69
2021/03/10 03:53:29;;;;;;;57.20;27.05;;;;;;;-9.45;81.04;100038.98;1700466;82;21041;-69
2021/03/10 03:55:56;;;;;;;59.18;27.62;;;;;;;-9.42;81.11;100041.63;1698650;83;21178;-69
2021/03/10 03:58:23;;;;;;;58.68;27.27;;;;;;;-9.32;81.34;100039.91;1700196;82;21075;-69
2021/03/10 04:00:50;;;;;;;52.58;27.98;;;;;;;-9.28;81.26;100044.27;1700199;83;21166;-69
2021/03/10 04:03:17;;;;;;;56.15;27.73;;;;;;;-9.29;81.11;100042.55;1699645;82;27069;-69
2021/03/10 04:05:44;;;;;;;45.30;22.13;;;;;;;-9.35;81.08;100047.38;1700245;82;21679;-69
2021/03/10 04:08:11;;;;;;;49.42;24.45;;;;;;;-9.44;80.92;100036.90;1700090;82;21025;-68
2021/03/10 04:10:40;;;;;;;45.70;24.52;;;;;;;-9.52;80.87;100038.27;1700778;83;21225;-69
2021/03/10 04:13:07;;;;;;;58.95;27.15;;;;;;;-9.60;80.87;100043.06;1697847;83;21195;-69
2021/03/10 04:15:35;;;;;;;56.33;26.93;;;;;;;-9.65;80.89;100037.37;1690592;84;21223;-69
2021/03/10 04:18:03;;;;;;;50.63;24.57;;;;;;;-9.69;80.88;100046.09;1677950;84;21054;-69
2021/03/10 04:20:31;;;;;;;50.45;26.82;;;;;;;-9.70;81.02;100040.56;1700498;82;21151;-68
2021/03/10 04:22:58;;;;;;;55.20;27.73;;;;;;;-9.72;81.12;100025.77;1714225;82;21635;-69
2021/03/10 04:25:25;;;;;;;53.90;28.40;;;;;;;-9.69;81.25;100035.98;1717018;82;21599;-69
2021/03/10 04:27:52;;;;;;;57.60;29.60;;;;;;;-9.69;81.23;100028.41;1710265;82;21426;-74
2021/03/10 04:30:41;;;;;;;51.70;28.90;;;;;;;-9.67;81.20;100035.17;1713708;82;21345;-70
2021/03/10 04:33:08;;;;;;;48.02;24.05;;;;;;;-9.69;81.07;100033.84;1649555;85;21060;-66
2021/03/10 04:35:35;;;;;;;53.73;28.02;;;;;;;-9.74;80.99;100037.47;1636047;86;21207;-66
2021/03/10 04:38:02;;;;;;;53.63;26.37;;;;;;;-9.79;81.12;100027.58;1644423;86;21276;-68
2021/03/10 04:40:29;;;;;;;57.73;30.23;;;;;;;-9.78;81.20;100024.23;1652358;85;21237;-68
2021/03/10 04:42:56;;;;;;;57.95;30.30;;;;;;;-9.78;81.18;100030.96;1648392;85;21223;-69
2021/03/10 04:45:24;;;;;;;53.60;26.52;;;;;;;-9.77;81.29;100042.41;1651307;85;21822;-69
2021/03/10 04:47:51;;;;;;;;;;;;;;;-9.75;81.39;100040.78;1652839;85;21176;-69
2021/03/10 04:50:18;;;;;;;47.03;24.20;;;;;;;-9.70;81.59;100039.30;1657381;85;20249;-69
2021/03/10 04:52:46;;;;;;;50.28;24.98;;;;;;;-9.67;81.48;100038.97;1613774;85;21712;-69
2021/03/10 04:55:34;;;;;;;43.52;21.48;;;;;;;-9.62;81.66;100043.80;1644453;85;21113;-69
2021/03/10 04:58:01;;;;;;;60.65;29.67;;;;;;;-9.57;81.72;100034.73;1658960;84;21080;-69
2021/03/10 05:00:28;;;;;;;65.05;29.10;;;;;;;-9.51;81.72;100029.91;1663627;84;21271;-68
2021/03/10 05:02:56;;;;;;;62.58;30.52;;;;;;;-9.48;81.58;100027.49;1656967;84;21641;-69
2021/03/10 05:05:23;;;;;;;65.75;29.80;;;;;;;-9.51;81.36;100038.75;1664068;84;26702;-69
2021/03/10 05:07:50;;;;;;;64.95;32.33;;;;;;;-9.54;81.38;100034.84;1657694;85;28768;-69
2021/03/10 05:10:18;;;;;;;64.17;35.78;;;;;;;-9.49;81.45;100038.42;1653841;85;21188;-69
2021/03/10 05:12:45;;;;;;;60.65;33.58;;;;;;;-9.47;81.44;100034.26;1665740;85;21064;-69
2021/03/10 05:15:12;;;;;;;75.03;36.70;;;;;;;-9.39;81.74;100040.47;1641752;85;21208;-69
2021/03/10 05:17:39;;;;;;;59.48;33.38;;;;;;;-9.31;81.63;100053.41;1663756;84;21270;-69
2021/03/10 05:20:08;;;;;;;63.33;34.03;;;;;;;-9.28;81.56;100054.37;1665893;84;21219;-69
2021/03/10 05:22:35;;;;;;;54.48;34.78;;;;;;;-9.22;81.60;100057.95;1654692;85;21226;-69
2021/03/10 05:25:03;;;;;;;79.22;41.58;;;;;;;-9.10;81.83;100068.50;1652671;85;26754;-69
2021/03/10 05:27:31;;;;;;;63.83;36.15;;;;;;;-8.96;81.90;100066.48;1649604;85;21196;-69
2021/03/10 05:30:00;;;;;;;60.12;29.32;;;;;;;-8.87;81.76;100075.29;1655449;85;21677;-69
2021/03/10 05:32:27;;;;;;;66.55;31.17;;;;;;;-8.81;81.40;100060.31;1650301;85;21292;-69
2021/03/10 05:34:54;;;;;;;77.67;33.50;;;;;;;-8.63;81.35;100059.23;1655611;85;21213;-69
2021/03/10 05:37:22;;;;;;;98.03;38.30;;;;;;;-8.28;81.37;100055.36;1655044;85;21219;-69
2021/03/10 05:39:48;;;;;;;94.42;42.40;;;;;;;-7.89;81.15;100060.87;1650784;85;21203;-69
2021/03/10 05:42:16;;;;;;;107.00;43.15;;;;;;;-7.57;80.64;100052.55;1649586;85;21630;-69
2021/03/10 05:44:43;;;;;;;96.25;41.68;;;;;;;-7.25;80.26;100053.53;1656323;85;21033;-70
2021/03/10 05:47:10;;;;;;;90.77;41.40;;;;;;;-6.98;79.98;100058.11;1649757;85;21050;-69
2021/03/10 05:49:37;;;;;;;92.10;41.42;;;;;;;-6.66;79.93;100051.83;1647226;85;21171;-70
2021/03/10 05:52:06;;;;;;;88.72;39.15;;;;;;;-6.26;80.02;100057.95;1653328;85;21689;-70
2021/03/10 05:54:36;;;;;;;84.13;38.92;;;;;;;-5.75;80.08;100054.94;1650164;85;22183;-70
2021/03/10 05:57:05;;;;;;;71.53;37.30;;;;;;;-5.35;79.26;100057.11;1632108;86;21080;-70
2021/03/10 05:59:33;;;;;;;80.17;34.70;;;;;;;-5.03;79.13;100059.51;1628363;86;21263;-70
2021/03/10 06:02:00;;;;;;;67.17;33.25;;;;;;;-4.63;79.14;100056.48;1634824;85;21258;-70
2021/03/10 06:04:41;;;;;;;61.48;33.10;;;;;;;-4.24;79.08;100050.41;1633346;85;21216;-70
2021/03/10 06:07:42;;;;;;;67.70;33.88;;;;;;;-3.93;78.80;100047.54;1635943;85;22882;-70
2021/03/10 06:10:11;;;;;;;56.30;31.17;;;;;;;-3.76;78.40;100041.85;1586080;88;21212;-68
2021/03/10 06:12:44;;;;;;;62.83;33.40;;;;;;;-3.53;78.47;100047.30;1592658;88;21624;-68
2021/03/10 06:15:40;;;;;;;60.05;33.58;;;;;;;-3.45;77.90;100044.02;1570280;90;21225;-70
2021/03/10 06:18:08;;;;;;;88.03;47.78;;;;;;;-3.42;77.76;100048.31;1627082;86;21225;-69
2021/03/10 06:20:35;;;;;;;82.25;44.88;;;;;;;-3.30;78.00;100030.64;1657851;85;21220;-69
2021/03/10 06:23:09;;;;;;;56.73;36.53;;;;;;;-3.20;77.70;100035.44;1654603;85;21705;-69
2021/03/10 06:25:38;;;;;;;51.92;31.35;;;;;;;-3.13;77.96;100041.08;1662292;85;22379;-70
2021/03/10 06:28:05;;;;;;;73.15;41.30;;;;;;;-2.97;78.14;100044.27;1657735;85;21234;-70
2021/03/10 06:30:43;;;;;;;76.00;44.42;;;;;;;-2.62;78.52;100050.20;1657595;85;22208;-69
2021/03/10 06:33:20;;;;;;;59.13;35.52;;;;;;;-2.20;78.56;100054.06;1657307;85;21905;-69
2021/03/10 06:35:47;;;;;;;;;;;;;;;-1.70;78.65;100051.08;1625905;86;21802;-69
2021/03/10 06:38:19;;;;;;;65.65;37.70;;;;;;;-1.19;78.60;100053.55;1628267;86;20303;-70
2021/03/10 06:40:54;;;;;;;59.93;35.05;;;;;;;-0.64;79.09;100061.05;1594657;86;21631;-75
2021/03/10 06:43:34;;;;;;;62.60;34.60;;;;;;;0.04;78.85;100064.66;1661161;85;21248;-74
2021/03/10 06:46:12;;;;;;;53.55;32.35;;;;;;;0.55;78.33;100053.94;1656202;85;21225;-70
2021/03/10 06:48:39;;;;;;;59.95;34.90;;;;;;;0.63;77.28;100046.64;1654901;85;21253;-74
2021/03/10 06:51:13;;;;;;;46.95;28.15;;;;;;;0.57;76.68;100044.09;1628991;85;21188;-70
2021/03/10 06:53:41;;;;;;;50.38;28.25;;;;;;;0.37;76.60;100053.10;1655557;85;21301;-70
2021/03/10 06:56:18;;;;;;;51.08;28.83;;;;;;;0.20;76.67;100051.82;1654114;84;21580;-71
2021/03/10 06:59:06;;;;;;;45.48;30.82;;;;;;;0.15;77.03;100056.09;1662065;85;21432;-73
2021/03/10 07:01:45;;;;;;;50.50;31.65;;;;;;;0.20;77.21;100067.23;1624362;86;21653;-71
2021/03/10 07:04:13;;;;;;;50.10;29.92;;;;;;;0.66;78.76;100059.48;1642010;85;21234;-69
2021/03/10 07:06:41;;;;;;;45.78;27.93;;;;;;;1.28;78.63;100069.59;1625515;86;21706;-70
2021/03/10 07:09:13;;;;;;;46.02;26.73;;;;;;;1.25;77.48;100070.90;1645515;85;21168;-69
2021/03/10 07:11:42;;;;;;;44.58;28.15;;;;;;;1.21;77.27;100071.78;1614734;88;22190;-69
2021/03/10 07:14:30;;;;;;;53.08;30.92;;;;;;;1.00;77.06;100070.13;1647477;85;21269;-69
2021/03/10 07:17:00;;;;;;;46.65;28.55;;;;;;;0.66;77.00;100059.48;1647633;85;22105;-69
2021/03/10 07:19:27;;;;;;;53.92;28.90;;;;;;;0.38;77.34;100056.52;1647765;85;21217;-69
2021/03/10 07:22:02;;;;;;;47.48;27.67;;;;;;;0.21;77.57;100066.36;1652140;85;21643;-71
2021/03/10 07:28:06;;;;;;;54.63;29.85;;;;;;;0.42;77.68;100062.07;1620265;87;21698;-69
2021/03/10 07:30:40;;;;;;;56.20;30.48;;;;;;;0.54;77.82;100068.94;1624313;87;21203;-70
2021/03/10 07:33:14;;;;;;;52.60;30.15;;;;;;;0.74;78.64;100068.91;1624640;87;21244;-69
2021/03/10 07:35:55;;;;;;;49.83;27.85;;;;;;;1.28;78.91;100070.89;1600517;87;21342;-69
2021/03/10 07:38:26;;;;;;;51.48;29.18;;;;;;;1.28;78.13;100076.03;1623199;87;21285;-69
2021/03/10 07:41:06;;;;;;;58.98;31.60;;;;;;;1.08;77.84;100079.95;1770674;78;23489;-67
2021/03/10 07:43:50;;;;;;;52.67;30.08;;;;;;;0.96;78.30;100073.14;1740683;80;21199;-68
2021/03/10 07:46:27;;;;;;;61.58;32.95;;;;;;;1.00;78.37;100076.11;1739565;81;21378;-69
2021/03/10 07:48:57;;;;;;;47.80;28.50;;;;;;;1.26;78.93;100079.03;1746289;81;21052;-72
2021/03/10 07:51:31;;;;;;;55.38;31.97;;;;;;;1.52;78.68;100087.52;1741518;81;21216;-69
2021/03/10 07:54:27;;;;;;;67.55;38.83;;;;;;;1.50;78.42;100094.37;1743076;80;21048;-68
2021/03/10 07:57:16;;;;;;;67.70;38.88;;;;;;;1.45;78.45;100090.96;1743962;80;21642;-68
2021/03/10 08:00:18;;;;;;;60.65;36.17;;;;;;;1.36;78.41;100091.01;1743094;80;21191;-69
2021/03/10 08:02:50;;;;;;;68.72;37.67;;;;;;;1.26;78.54;100090.61;1672311;84;21172;-69
2021/03/10 08:05:25;;;;;;;56.30;31.82;;;;;;;1.25;78.62;100078.62;1671587;84;21186;-68
2021/03/10 08:08:16;;;;;;;55.28;32.40;;;;;;;1.54;78.96;100075.50;1833250;76;23356;-68
2021/03/10 08:10:43;;;;;;;54.88;31.05;;;;;;;1.86;79.07;100077.03;1808728;77;20970;-69
2021/03/10 08:13:19;;;;;;;47.33;25.88;;;;;;;2.35;79.41;100075.81;1799267;77;21201;-69
2021/03/10 08:15:47;;;;;;;46.63;24.43;;;;;;;2.63;78.84;100076.44;1740633;80;21043;-67
2021/03/10 08:18:19;;;;;;;;;;;;;;;3.01;78.95;100070.05;1744032;81;21045;-67
2021/03/10 08:20:46;;;;;;;41.48;20.75;;;;;;;3.29;78.57;100063.70;1737830;80;20288;-68
2021/03/10 08:23:14;;;;;;;30.82;19.12;;;;;;;3.65;78.67;100064.11;1765600;79;21211;-69
2021/03/10 08:25:46;;;;;;;34.65;19.15;;;;;;;3.99;78.55;100076.55;1765008;79;21692;-69
2021/03/10 08:28:37;;;;;;;27.40;17.20;;;;;;;4.23;78.38;100072.75;1732861;80;21744;-69
2021/03/10 08:31:08;;;;;;;25.27;15.58;;;;;;;4.38;77.83;100076.81;1650539;85;21092;-68
2021/03/10 08:33:50;;;;;;;24.70;15.00;;;;;;;4.52;78.05;100079.17;1658362;84;21052;-71
2021/03/10 08:36:30;;;;;;;31.73;16.95;;;;;;;4.65;77.47;100089.28;1616592;87;21614;-68
2021/03/10 08:39:00;;;;;;;27.73;16.77;;;;;;;4.76;77.44;100084.34;1640167;85;21293;-68
2021/03/10 08:42:05;;;;;;;22.48;14.98;;;;;;;4.97;77.60;100080.08;1637988;86;21106;-68
2021/03/10 08:44:41;;;;;;;21.42;15.10;;;;;;;5.11;77.14;100086.29;1664673;84;21612;-68
2021/03/10 08:47:21;;;;;;;27.13;14.90;;;;;;;5.14;76.89;100093.55;1666892;84;21666;-69
2021/03/10 08:49:58;;;;;;;25.65;15.72;;;;;;;5.18;76.75;100089.61;1641198;85;21246;-70
2021/03/10 08:52:28;;;;;;;28.52;16.02;;;;;;;5.22;76.55;100080.91;1642776;85;21672;-68
2021/03/10 08:55:08;;;;;;;23.40;14.63;;;;;;;5.28;76.33;100086.81;1638254;85;21243;-68
2021/03/10 08:57:36;;;;;;;27.98;17.42;;;;;;;5.36;75.86;100087.96;1645081;85;21057;-68
2021/03/10 09:00:17;;;;;;;24.60;17.62;;;;;;;5.10;75.54;100089.33;1644692;85;21168;-71
2021/03/10 09:02:44;;;;;;;30.88;20.80;;;;;;;5.14;75.94;100088.37;1647293;85;21190;-71
2021/03/10 09:05:13;;;;;;;26.93;15.08;;;;;;;5.32;76.18;100077.23;1646548;85;21617;-72
2021/03/10 09:07:40;;;;;;;21.57;14.25;;;;;;;5.49;76.26;100086.84;1643158;85;21236;-71
2021/03/10 09:10:17;;;;;;;20.68;13.98;;;;;;;5.52;75.43;100089.81;1643200;85;21218;-74
2021/03/10 09:12:47;;;;;;;22.90;15.45;;;;;;;5.56;75.78;100094.87;1645820;85;21545;-70
2021/03/10 09:15:28;;;;;;;20.65;15.72;;;;;;;5.70;75.57;100093.73;1644200;85;21216;-70
2021/03/10 09:18:04;;;;;;;26.90;18.35;;;;;;;5.53;74.78;100091.05;1663839;84;22443;-72
2021/03/10 09:20:54;;;;;;;27.90;15.75;;;;;;;5.58;75.43;100097.00;1619460;86;22431;-70
2021/03/10 09:23:27;;;;;;;28.75;14.73;;;;;;;5.61;75.07;100094.34;1697518;82;21202;-70
2021/03/10 09:25:56;;;;;;;22.22;14.15;;;;;;;5.63;75.07;100102.51;1693682;83;21307;-69
2021/03/10 09:28:23;;;;;;;26.97;15.10;;;;;;;5.70;75.00;100097.63;1704007;82;21194;-71
2021/03/10 09:30:52;;;;;;;19.45;12.40;;;;;;;5.86;75.04;100100.30;1670593;84;21274;-71
2021/03/10 09:33:28;;;;;;;27.82;14.07;;;;;;;5.95;74.78;100104.01;1680276;84;21209;-72
2021/03/10 09:36:03;;;;;;;22.67;13.32;;;;;;;5.98;74.34;100098.75;1675427;84;21270;-73
2021/03/10 09:38:34;;;;;;;20.88;13.28;;;;;;;5.98;74.36;100101.34;1674116;84;21244;-73
2021/03/10 09:41:04;;;;;;;21.55;12.93;;;;;;;5.87;73.51;100107.17;1680757;84;21179;-74
2021/03/10 09:43:33;;;;;;;23.57;12.15;;;;;;;5.67;73.40;100105.47;1676177;84;21728;-73
2021/03/10 09:46:04;;;;;;;21.68;12.20;;;;;;;5.74;74.06;100097.54;1705672;82;21160;-73
2021/03/10 09:48:40;;;;;;;20.05;11.78;;;;;;;5.76;73.89;100102.22;1701968;82;21021;-73
2021/03/10 09:51:16;;;;;;;21.20;11.68;;;;;;;5.82;73.91;100103.41;1707075;82;21044;-73
2021/03/10 09:53:48;;;;;;;22.22;11.85;;;;;;;5.91;73.73;100112.72;1672626;84;21239;-74
2021/03/10 09:56:18;;;;;;;24.52;13.15;;;;;;;6.04;73.46;100112.87;1680971;84;22824;-73
2021/03/10 09:58:54;;;;;;;17.45;10.88;;;;;;;6.22;73.86;100117.25;1676603;84;21729;-72
2021/03/10 10:01:30;;;;;;;20.45;10.70;;;;;;;6.35;72.90;100116.05;1797656;78;22771;-72
2021/03/10 10:03:58;;;;;;;16.45;10.50;;;;;;;6.39;73.37;100116.41;1762963;79;21625;-73
2021/03/10 10:06:26;;;;;;;17.05;11.10;;;;;;;6.46;71.38;100114.05;1749283;80;21418;-72
2021/03/10 10:08:53;;;;;;;18.90;11.25;;;;;;;5.98;71.80;100114.30;1771497;79;21071;-72
2021/03/10 10:11:21;;;;;;;21.17;9.85;;;;;;;6.05;72.72;100113.30;1766899;79;23136;-72
2021/03/10 10:13:50;;;;;;;11.90;7.37;;;;;;;6.16;72.52;100115.65;1766276;79;21131;-71
2021/03/10 10:16:17;;;;;;;12.78;7.75;;;;;;;6.05;71.36;100118.48;1747772;80;21012;-70
2021/03/10 10:18:47;;;;;;;9.40;7.08;;;;;;;6.04;72.43;100127.12;1770521;80;21366;-71
2021/03/10 10:21:16;;;;;;;9.80;7.92;;;;;;;6.22;72.06;100122.44;1769760;79;21043;-72
2021/03/10 10:23:44;;;;;;;10.68;7.33;;;;;;;6.35;71.88;100125.58;1766560;79;21546;-73
2021/03/10 10:26:11;;;;;;;14.75;6.47;;;;;;;6.54;72.26;100123.41;1768708;79;21199;-71
2021/03/10 10:29:01;;;;;;;20.92;5.78;;;;;;;6.79;71.73;100119.30;1767932;80;21226;-71
2021/03/10 10:31:28;;;;;;;13.40;6.22;;;;;;;6.93;71.50;100121.09;1728432;81;22126;-73
2021/03/10 10:33:55;;;;;;;;;;;;;;;7.37;71.79;100120.36;1729774;81;21152;-70
2021/03/10 10:36:23;;;;;;;11.38;6.85;;;;;;;7.47;70.53;100117.50;1729815;81;20492;-70
2021/03/10 10:38:50;;;;;;;9.55;6.90;;;;;;;7.36;70.68;100109.55;1728237;81;21127;-70
2021/03/10 10:41:17;;;;;;;14.33;9.00;;;;;;;7.37;70.46;100115.17;1724797;81;21187;-71
2021/03/10 10:43:44;;;;;;;11.50;8.18;;;;;;;7.08;66.50;100110.75;1726454;81;21229;-71
2021/03/10 10:46:12;;;;;;;11.33;7.47;;;;;;;6.14;65.27;100117.87;1722716;81;21194;-72
2021/03/10 10:48:39;;;;;;;12.90;8.33;;;;;;;5.52;67.74;100117.85;1724378;81;21210;-72
2021/03/10 10:51:06;;;;;;;11.63;8.15;;;;;;;5.30;67.35;100116.57;1726685;81;21216;-73
2021/03/10 10:53:33;;;;;;;14.30;8.25;;;;;;;5.16;69.24;100112.95;1722695;81;21139;-71
2021/03/10 10:56:00;;;;;;;13.38;8.48;;;;;;;5.43;68.74;100115.42;1723811;81;21051;-71
2021/03/10 10:58:28;;;;;;;11.53;8.48;;;;;;;5.22;66.34;100110.69;1728225;81;21680;-72
2021/03/10 11:00:55;;;;;;;12.95;8.78;;;;;;;5.06;68.51;100105.78;1725977;81;21211;-71
2021/03/10 11:03:23;;;;;;;14.55;8.50;;;;;;;5.20;68.92;100104.67;1728825;81;21041;-71
2021/03/10 11:05:50;;;;;;;14.75;7.92;;;;;;;5.54;69.24;100104.85;1724179;81;21163;-71
2021/03/10 11:08:17;;;;;;;12.30;8.10;;;;;;;5.92;69.53;100096.27;1726148;81;21270;-72
2021/03/10 11:10:44;;;;;;;8.10;5.62;;;;;;;6.34;69.60;100097.50;1725956;81;21123;-72
2021/03/10 11:13:12;;;;;;;11.03;6.40;;;;;;;6.61;68.01;100101.59;1727138;81;21040;-71
2021/03/10 11:15:39;;;;;;;10.75;6.53;;;;;;;6.32;68.04;100090.19;1725144;81;22156;-71
2021/03/10 11:18:06;;;;;;;14.28;7.45;;;;;;;6.43;64.55;100084.75;1721165;81;21600;-70
2021/03/10 11:20:33;;;;;;;9.90;7.37;;;;;;;5.87;63.39;100091.63;1724676;81;21194;-72
2021/03/10 11:23:00;;;;;;;10.18;6.65;;;;;;;5.56;65.94;100090.98;1722694;81;22038;-72
2021/03/10 11:25:28;;;;;;;9.88;6.85;;;;;;;5.22;59.26;100092.56;1721528;81;21210;-73
2021/03/10 11:27:56;;;;;;;10.80;5.75;;;;;;;4.94;65.51;100091.34;1719357;81;21668;-73
2021/03/10 11:30:25;;;;;;;9.23;6.12;;;;;;;5.47;67.44;100088.59;1723241;81;21184;-72
2021/03/10 11:32:52;;;;;;;10.80;7.33;;;;;;;6.00;67.79;100081.44;1725792;81;21219;-71
2021/03/10 11:35:23;;;;;;;14.35;5.85;;;;;;;6.40;67.75;100083.08;1721209;80;21719;-72
2021/03/10 11:37:50;;;;;;;5.83;5.10;;;;;;;6.80;67.82;100081.22;1724299;81;21210;-73